createdAt,value
2022-09-13T00:02:21.007Z,12.00
2022-09-13T00:04:48.110Z,12.00
2022-09-13T00:07:15.228Z,11.90
2022-09-13T00:09:42.293Z,12.00
2022-09-13T00:12:09.378Z,12.00
2022-09-13T00:14:36.419Z,12.00
2022-09-13T00:17:03.722Z,11.90
2022-09-13T00:19:30.839Z,11.90
2022-09-13T00:21:57.869Z,11.90
2022-09-13T00:24:25.102Z,11.90
2022-09-13T00:26:52.150Z,11.90
2022-09-13T00:29:19.235Z,11.90
2022-09-13T00:31:46.318Z,11.90
2022-09-13T00:34:13.530Z,12.00
2022-09-13T00:36:40.671Z,12.00
2022-09-13T00:39:07.700Z,12.00
2022-09-13T00:41:34.954Z,12.00
2022-09-13T00:44:03.274Z,12.00
2022-09-13T00:46:44.683Z,12.00
2022-09-13T00:49:46.001Z,12.00
2022-09-13T00:52:19.976Z,12.00
2022-09-13T00:54:53.122Z,12.00
2022-09-13T00:57:22.434Z,12.00
2022-09-13T00:59:59.348Z,12.00
2022-09-13T01:02:28.815Z,12.00
2022-09-13T01:04:56.534Z,12.00
2022-09-13T01:07:23.799Z,11.90
2022-09-13T01:09:53.038Z,11.90
2022-09-13T01:12:43.431Z,11.90
2022-09-13T01:15:11.754Z,11.90
2022-09-13T01:17:40.062Z,11.90
2022-09-13T01:20:09.651Z,11.90
2022-09-13T01:22:45.498Z,11.90
2022-09-13T01:25:35.087Z,11.90
2022-09-13T01:28:51.557Z,11.90
2022-09-13T01:31:36.330Z,11.90
2022-09-13T01:34:15.155Z,11.90
2022-09-13T01:37:00.258Z,11.90
2022-09-13T01:39:48.585Z,11.90
2022-09-13T01:42:40.402Z,11.90
2022-09-13T01:45:28.762Z,11.90
2022-09-13T01:48:14.220Z,11.90
2022-09-13T01:50:49.469Z,11.90
2022-09-13T01:53:38.734Z,11.80
2022-09-13T01:56:29.128Z,11.80
2022-09-13T01:59:42.864Z,11.80
2022-09-13T02:02:36.844Z,11.80
2022-09-13T02:05:37.840Z,11.70
2022-09-13T02:08:23.497Z,11.70
2022-09-13T02:11:12.872Z,11.70
2022-09-13T02:13:47.268Z,11.70
2022-09-13T02:16:31.257Z,11.80
2022-09-13T02:19:07.100Z,11.80
2022-09-13T02:21:39.347Z,11.80
2022-09-13T02:24:12.869Z,11.90
2022-09-13T02:26:42.123Z,11.90
2022-09-13T02:29:17.056Z,11.90
2022-09-13T02:32:17.322Z,12.00
2022-09-13T02:34:57.440Z,12.00
2022-09-13T02:37:28.210Z,11.90
2022-09-13T02:40:03.676Z,11.90
2022-09-13T02:43:22.695Z,11.90
2022-09-13T02:46:18.927Z,11.80
2022-09-13T02:49:51.663Z,11.80
2022-09-13T02:52:43.567Z,11.80
2022-09-13T02:55:34.528Z,11.80
2022-09-13T02:58:48.972Z,11.90
2022-09-13T03:01:16.324Z,11.80
2022-09-13T03:03:44.520Z,11.80
2022-09-13T03:06:11.569Z,11.80
2022-09-13T03:08:39.055Z,11.90
2022-09-13T03:11:15.736Z,11.90
2022-09-13T03:14:09.946Z,11.90
2022-09-13T03:16:48.054Z,11.90
2022-09-13T03:19:54.673Z,11.80
2022-09-13T03:23:08.411Z,11.80
2022-09-13T03:25:51.981Z,11.70
2022-09-13T03:28:41.207Z,11.70
2022-09-13T03:31:21.331Z,11.60
2022-09-13T03:34:13.947Z,11.70
2022-09-13T03:36:52.633Z,11.70
2022-09-13T03:40:08.310Z,11.70
2022-09-13T03:42:48.494Z,11.70
2022-09-13T03:45:19.460Z,11.70
2022-09-13T03:47:49.375Z,11.80
2022-09-13T03:50:24.237Z,11.90
2022-09-13T03:53:05.078Z,11.90
2022-09-13T03:55:34.306Z,11.90
2022-09-13T03:58:01.472Z,11.90
2022-09-13T04:00:29.511Z,12.00
2022-09-13T04:02:56.585Z,12.00
2022-09-13T04:05:23.632Z,12.00
2022-09-13T04:07:50.701Z,12.00
2022-09-13T04:10:17.746Z,12.00
2022-09-13T04:12:44.945Z,12.00
2022-09-13T04:15:12.115Z,11.90
2022-09-13T04:17:39.191Z,11.90
2022-09-13T04:20:06.814Z,11.90
2022-09-13T04:22:33.905Z,11.90
2022-09-13T04:25:02.624Z,11.80
2022-09-13T04:27:29.951Z,11.80
2022-09-13T04:29:57.067Z,11.80
2022-09-13T04:32:24.583Z,11.80
2022-09-13T04:34:51.665Z,11.80
2022-09-13T04:37:18.712Z,11.80
2022-09-13T04:39:45.864Z,11.90
2022-09-13T04:42:13.535Z,11.80
2022-09-13T04:44:40.651Z,11.90
2022-09-13T04:47:08.992Z,11.90
2022-09-13T04:49:36.046Z,12.00
2022-09-13T04:52:03.524Z,11.90
2022-09-13T04:54:31.348Z,12.00
2022-09-13T04:56:58.392Z,12.00
2022-09-13T04:59:25.439Z,12.10
2022-09-13T05:01:52.616Z,12.10
2022-09-13T05:04:19.724Z,12.10
2022-09-13T05:06:48.657Z,12.20
2022-09-13T05:09:16.323Z,12.20
2022-09-13T05:11:43.570Z,12.30
2022-09-13T05:14:11.639Z,12.30
2022-09-13T05:16:39.129Z,12.40
2022-09-13T05:19:06.319Z,12.40
2022-09-13T05:21:33.579Z,12.50
2022-09-13T05:24:00.860Z,12.60
2022-09-13T05:26:33.583Z,12.70
2022-09-13T05:29:04.069Z,12.80
2022-09-13T05:31:40.911Z,12.80
2022-09-13T05:34:12.874Z,12.90
2022-09-13T05:36:40.635Z,13.00
2022-09-13T05:39:29.639Z,13.00
2022-09-13T05:42:00.116Z,13.10
2022-09-13T05:44:27.169Z,13.10
2022-09-13T05:46:54.148Z,13.30
2022-09-13T05:49:21.130Z,13.40
2022-09-13T05:51:48.240Z,13.60
2022-09-13T05:54:15.364Z,13.70
2022-09-13T05:56:42.514Z,13.70
2022-09-13T05:59:14.549Z,13.70
2022-09-13T06:01:42.135Z,13.70
2022-09-13T06:04:09.349Z,13.90
2022-09-13T06:06:36.591Z,14.20
2022-09-13T06:09:06.482Z,14.20
2022-09-13T06:11:33.609Z,14.40
2022-09-13T06:14:00.638Z,14.50
2022-09-13T06:16:27.771Z,14.70
2022-09-13T06:18:55.080Z,15.00
2022-09-13T06:21:28.314Z,15.30
2022-09-13T06:23:57.003Z,15.60
2022-09-13T06:26:27.154Z,15.70
2022-09-13T06:28:57.100Z,16.20
2022-09-13T06:31:27.412Z,16.30
2022-09-13T06:34:02.342Z,16.40
2022-09-13T06:36:30.085Z,16.50
2022-09-13T06:38:58.130Z,16.40
2022-09-13T06:41:27.308Z,16.50
2022-09-13T06:43:57.641Z,16.60
2022-09-13T06:46:27.045Z,16.90
2022-09-13T06:48:54.841Z,17.10
2022-09-13T06:51:25.009Z,17.60
2022-09-13T06:53:53.588Z,17.80
2022-09-13T06:56:28.777Z,17.90
2022-09-13T06:58:59.240Z,17.90
2022-09-13T07:01:36.738Z,18.00
2022-09-13T07:04:12.602Z,17.90
2022-09-13T07:06:43.051Z,17.60
2022-09-13T07:09:14.880Z,17.90
2022-09-13T07:11:42.590Z,17.80
2022-09-13T07:14:13.789Z,17.80
2022-09-13T07:16:41.004Z,18.10
2022-09-13T07:19:13.927Z,18.20
2022-09-13T07:21:43.926Z,18.50
2022-09-13T07:24:11.771Z,18.80
2022-09-13T07:26:39.459Z,19.00
2022-09-13T07:29:10.613Z,19.10
2022-09-13T07:31:41.155Z,19.50
2022-09-13T07:34:14.615Z,20.10
2022-09-13T07:36:42.533Z,20.20
2022-09-13T07:39:13.730Z,20.40
2022-09-13T07:41:43.473Z,20.30
2022-09-13T07:44:11.997Z,19.90
2022-09-13T07:46:45.921Z,19.80
2022-09-13T07:49:19.067Z,19.30
2022-09-13T07:51:46.553Z,19.20
2022-09-13T07:54:16.508Z,18.90
2022-09-13T07:56:44.617Z,18.60
2022-09-13T07:59:15.276Z,18.70
2022-09-13T08:01:48.432Z,18.60
2022-09-13T08:04:21.149Z,18.50
2022-09-13T08:06:58.906Z,18.50
2022-09-13T08:09:26.034Z,18.50
2022-09-13T08:11:53.795Z,18.50
2022-09-13T08:14:23.159Z,18.40
2022-09-13T08:16:50.893Z,18.30
2022-09-13T08:19:19.647Z,18.30
2022-09-13T08:21:47.036Z,18.10
2022-09-13T08:24:21.440Z,18.30
2022-09-13T08:26:49.632Z,18.50
2022-09-13T08:29:17.294Z,18.70
2022-09-13T08:31:45.029Z,19.00
2022-09-13T08:34:15.162Z,19.30
2022-09-13T08:36:43.681Z,19.50
2022-09-13T08:39:13.984Z,19.70
2022-09-13T08:41:45.385Z,19.60
2022-09-13T08:44:35.477Z,19.50
2022-09-13T08:47:44.549Z,19.40
2022-09-13T08:50:39.281Z,19.30
2022-09-13T08:53:06.342Z,19.60
2022-09-13T08:56:07.537Z,19.60
2022-09-13T08:59:14.441Z,19.50
2022-09-13T09:02:21.193Z,19.60
2022-09-13T09:05:04.440Z,19.40
2022-09-13T09:07:44.481Z,19.30
2022-09-13T09:10:18.577Z,19.40
2022-09-13T09:12:49.766Z,19.50
2022-09-13T09:15:27.687Z,19.60
2022-09-13T09:18:19.776Z,19.70
2022-09-13T09:20:56.538Z,19.80
2022-09-13T09:23:53.055Z,20.10
2022-09-13T09:26:29.156Z,20.00
2022-09-13T09:29:05.943Z,20.00
2022-09-13T09:31:45.331Z,20.20
2022-09-13T09:34:45.512Z,20.50
2022-09-13T09:37:26.126Z,20.90
2022-09-13T09:39:56.220Z,21.30
2022-09-13T09:42:28.624Z,21.80
2022-09-13T09:45:33.859Z,21.40
2022-09-13T09:48:15.280Z,21.60
2022-09-13T09:50:50.872Z,21.60
2022-09-13T09:53:54.035Z,22.20
2022-09-13T09:56:30.513Z,21.80
2022-09-13T09:58:57.726Z,22.30
2022-09-13T10:01:30.682Z,22.00
2022-09-13T10:04:13.138Z,22.30
2022-09-13T10:06:42.125Z,21.90
2022-09-13T10:09:18.235Z,21.70
2022-09-13T10:11:58.144Z,21.60
2022-09-13T10:14:34.682Z,21.60
2022-09-13T10:17:27.893Z,22.20
2022-09-13T10:20:15.905Z,22.90
2022-09-13T10:22:42.985Z,23.00
2022-09-13T10:25:31.874Z,23.20
2022-09-13T10:28:00.562Z,23.20
2022-09-13T10:30:57.715Z,23.20
2022-09-13T10:33:36.607Z,23.30
2022-09-13T10:36:29.516Z,23.00
2022-09-13T10:39:13.437Z,23.40
2022-09-13T10:41:42.886Z,23.30
2022-09-13T10:44:37.799Z,22.90
2022-09-13T10:47:11.323Z,23.10
2022-09-13T10:49:54.150Z,23.90
2022-09-13T10:52:29.435Z,24.30
2022-09-13T10:55:21.075Z,24.50
2022-09-13T10:58:08.339Z,24.40
2022-09-13T11:00:44.391Z,23.90
2022-09-13T11:03:40.785Z,23.80
2022-09-13T11:06:32.301Z,23.60
2022-09-13T11:10:10.130Z,23.80
2022-09-13T11:13:07.533Z,23.90
2022-09-13T11:15:56.116Z,23.70
2022-09-13T11:18:54.904Z,23.60
2022-09-13T11:21:58.333Z,23.60
2022-09-13T11:25:10.434Z,24.00
2022-09-13T11:28:15.147Z,24.40
2022-09-13T11:31:43.765Z,24.80
2022-09-13T11:35:10.984Z,24.90
2022-09-13T11:38:15.570Z,25.70
2022-09-13T11:41:11.719Z,26.70
2022-09-13T11:43:56.306Z,26.40
2022-09-13T11:46:42.137Z,26.60
2022-09-13T11:49:42.740Z,26.80
2022-09-13T11:52:30.034Z,28.20
2022-09-13T11:55:21.654Z,28.00
2022-09-13T11:58:00.812Z,28.30
2022-09-13T12:00:42.301Z,27.80
2022-09-13T12:03:28.323Z,28.50
2022-09-13T12:06:01.711Z,29.90
2022-09-13T12:08:45.672Z,30.50
2022-09-13T12:11:25.418Z,29.20
2022-09-13T12:13:58.297Z,28.90
2022-09-13T12:16:50.630Z,28.90
2022-09-13T12:19:28.563Z,29.10
2022-09-13T12:22:00.132Z,28.60
2022-09-13T12:24:48.718Z,28.60
2022-09-13T12:27:40.350Z,28.30
2022-09-13T12:30:16.482Z,29.20
2022-09-13T12:32:47.509Z,30.40
2022-09-13T12:35:54.433Z,29.10
2022-09-13T12:38:55.928Z,29.10
2022-09-13T12:41:50.914Z,29.50
2022-09-13T12:44:45.060Z,28.70
2022-09-13T12:47:39.687Z,28.50
2022-09-13T12:50:41.995Z,27.30
2022-09-13T12:53:20.250Z,26.10
2022-09-13T12:56:14.816Z,25.50
2022-09-13T12:59:10.289Z,25.20
2022-09-13T13:01:38.180Z,25.10
2022-09-13T13:04:28.636Z,25.10
2022-09-13T13:07:22.935Z,25.10
2022-09-13T13:09:54.733Z,25.20
2022-09-13T13:12:36.828Z,25.60
2022-09-13T13:15:16.133Z,25.40
2022-09-13T13:17:51.182Z,26.20
2022-09-13T13:21:08.184Z,26.50
2022-09-13T13:23:37.396Z,27.30
2022-09-13T13:26:58.451Z,28.30
2022-09-13T13:29:31.523Z,28.60
2022-09-13T13:32:07.945Z,28.40
2022-09-13T13:34:45.092Z,30.10
2022-09-13T13:37:12.091Z,30.50
2022-09-13T13:39:41.472Z,30.80
2022-09-13T13:42:27.235Z,32.00
2022-09-13T13:44:54.317Z,30.90
2022-09-13T13:47:21.270Z,29.90
2022-09-13T13:50:15.399Z,29.40
2022-09-13T13:52:48.646Z,28.80
2022-09-13T13:55:46.941Z,28.50
2022-09-13T13:58:47.182Z,27.70
2022-09-13T14:01:30.505Z,26.50
2022-09-13T14:04:18.772Z,26.80
2022-09-13T14:07:19.453Z,26.10
2022-09-13T14:10:14.505Z,25.70
2022-09-13T14:13:13.002Z,25.70
2022-09-13T14:16:11.424Z,25.40
2022-09-13T14:19:29.431Z,25.40
2022-09-13T14:22:20.992Z,25.30
2022-09-13T14:24:58.986Z,26.00
2022-09-13T14:27:35.985Z,25.90
2022-09-13T14:30:16.189Z,25.70
2022-09-13T14:32:47.441Z,25.10
2022-09-13T14:35:38.295Z,25.10
2022-09-13T14:38:27.032Z,25.00
2022-09-13T14:40:59.319Z,25.00
2022-09-13T14:43:29.594Z,25.00
2022-09-13T14:46:38.983Z,24.80
2022-09-13T14:49:16.232Z,24.70
2022-09-13T14:51:52.695Z,24.30
2022-09-13T14:54:44.150Z,24.10
2022-09-13T14:57:29.790Z,23.90
2022-09-13T15:00:20.206Z,23.80
2022-09-13T15:02:59.911Z,23.80
2022-09-13T15:05:32.830Z,23.60
2022-09-13T15:08:00.810Z,23.60
2022-09-13T15:10:46.686Z,23.50
2022-09-13T15:13:15.978Z,23.60
2022-09-13T15:15:45.393Z,23.60
2022-09-13T15:18:21.218Z,23.90
2022-09-13T15:21:01.900Z,24.00
2022-09-13T15:23:36.908Z,23.80
2022-09-13T15:26:10.025Z,23.70
2022-09-13T15:29:02.186Z,23.80
2022-09-13T15:31:33.349Z,23.50
2022-09-13T15:34:23.869Z,23.80
2022-09-13T15:37:14.888Z,24.00
2022-09-13T15:40:19.642Z,24.00
2022-09-13T15:42:49.361Z,23.90
2022-09-13T15:45:18.788Z,23.50
2022-09-13T15:47:49.709Z,23.40
2022-09-13T15:50:27.321Z,23.40
2022-09-13T15:52:56.100Z,23.20
2022-09-13T15:55:24.380Z,23.20
2022-09-13T15:57:51.883Z,23.20
2022-09-13T16:00:27.778Z,23.20
2022-09-13T16:02:54.988Z,23.30
2022-09-13T16:05:22.585Z,23.30
2022-09-13T16:07:49.872Z,23.20
2022-09-13T16:10:22.460Z,23.30
2022-09-13T16:12:51.648Z,23.30
2022-09-13T16:15:19.000Z,23.40
2022-09-13T16:17:46.326Z,23.20
2022-09-13T16:20:16.091Z,23.00
2022-09-13T16:22:43.249Z,22.90
2022-09-13T16:25:13.680Z,22.80
2022-09-13T16:27:43.675Z,22.80
2022-09-13T16:30:14.416Z,22.80
2022-09-13T16:32:41.795Z,22.70
2022-09-13T16:35:10.501Z,22.80
2022-09-13T16:37:40.013Z,22.70
2022-09-13T16:40:10.105Z,22.70
2022-09-13T16:42:37.382Z,22.50
2022-09-13T16:45:05.156Z,22.50
2022-09-13T16:47:32.297Z,22.40
2022-09-13T16:49:59.754Z,22.40
2022-09-13T16:52:28.903Z,22.30
2022-09-13T16:54:57.071Z,22.20
2022-09-13T16:57:24.687Z,22.10
2022-09-13T16:59:54.340Z,22.10
2022-09-13T17:02:21.607Z,22.00
2022-09-13T17:04:48.803Z,22.00
2022-09-13T17:07:15.925Z,21.90
2022-09-13T17:09:43.646Z,21.80
2022-09-13T17:12:13.465Z,21.70
2022-09-13T17:14:47.481Z,21.70
2022-09-13T17:17:18.680Z,21.70
2022-09-13T17:19:45.911Z,21.60
2022-09-13T17:22:13.061Z,21.60
2022-09-13T17:24:40.899Z,21.50
2022-09-13T17:27:08.084Z,21.40
2022-09-13T17:29:35.885Z,21.30
2022-09-13T17:32:05.894Z,21.30
2022-09-13T17:34:34.700Z,21.20
2022-09-13T17:37:03.679Z,21.10
2022-09-13T17:39:31.415Z,21.10
2022-09-13T17:41:58.908Z,21.10
2022-09-13T17:44:26.190Z,21.00
2022-09-13T17:46:53.382Z,21.00
2022-09-13T17:49:20.580Z,21.00
2022-09-13T17:51:47.646Z,20.90
2022-09-13T17:54:14.773Z,20.90
2022-09-13T17:56:44.656Z,20.80
2022-09-13T17:59:18.354Z,20.80
2022-09-13T18:01:51.724Z,20.70
2022-09-13T18:04:22.570Z,20.60
2022-09-13T18:06:52.699Z,20.50
2022-09-13T18:09:20.804Z,20.40
2022-09-13T18:11:47.941Z,20.40
2022-09-13T18:14:17.538Z,20.20
2022-09-13T18:16:45.057Z,20.10
2022-09-13T18:19:12.761Z,20.00
2022-09-13T18:21:40.691Z,19.90
2022-09-13T18:24:07.897Z,19.80
2022-09-13T18:26:35.986Z,19.80
2022-09-13T18:29:07.617Z,19.70
2022-09-13T18:31:36.309Z,19.70
2022-09-13T18:34:11.934Z,19.70
2022-09-13T18:36:39.908Z,19.60
2022-09-13T18:39:11.125Z,19.50
2022-09-13T18:41:40.774Z,19.50
2022-09-13T18:44:10.465Z,19.40
2022-09-13T18:46:38.267Z,19.30
2022-09-13T18:49:06.822Z,19.30
2022-09-13T18:51:44.937Z,19.30
2022-09-13T18:54:17.964Z,19.20
2022-09-13T18:56:47.326Z,19.20
2022-09-13T18:59:14.920Z,19.20
2022-09-13T19:01:44.243Z,19.20
2022-09-13T19:04:20.157Z,19.10
2022-09-13T19:06:50.642Z,19.10
2022-09-13T19:09:20.641Z,19.10
2022-09-13T19:11:50.596Z,19.10
2022-09-13T19:14:27.079Z,19.10
2022-09-13T19:16:57.184Z,19.10
2022-09-13T19:19:24.895Z,19.00
2022-09-13T19:21:52.100Z,18.90
2022-09-13T19:26:51.049Z,18.90
2022-09-13T19:29:23.226Z,18.90
2022-09-13T19:31:52.526Z,18.90
2022-09-13T19:34:22.501Z,18.90
2022-09-13T19:36:53.778Z,19.00
2022-09-13T19:39:20.887Z,19.10
2022-09-13T19:41:47.992Z,19.10
2022-09-13T19:44:15.420Z,19.00
2022-09-13T19:46:43.402Z,18.90
2022-09-13T19:49:16.703Z,18.90
2022-09-13T19:51:50.143Z,18.80
2022-09-13T19:54:19.486Z,18.80
2022-09-13T19:56:46.636Z,18.70
2022-09-13T19:59:17.113Z,18.60
2022-09-13T20:01:46.125Z,18.50
2022-09-13T20:04:17.682Z,18.50
2022-09-13T20:06:51.500Z,18.40
2022-09-13T20:09:20.740Z,18.40
2022-09-13T20:11:48.980Z,18.40
2022-09-13T20:14:19.312Z,18.40
2022-09-13T20:16:47.472Z,18.40
2022-09-13T20:22:10.069Z,18.30
2022-09-13T20:24:37.521Z,18.30
2022-09-13T20:27:04.987Z,18.30
2022-09-13T20:29:32.109Z,18.30
2022-09-13T20:31:59.857Z,18.20
2022-09-13T20:34:27.320Z,18.20
2022-09-13T20:36:54.522Z,18.20
2022-09-13T20:39:21.785Z,18.10
2022-09-13T20:41:50.082Z,18.20
2022-09-13T20:44:17.563Z,18.10
2022-09-13T20:46:44.779Z,18.00
2022-09-13T20:49:12.022Z,18.00
2022-09-13T20:51:39.210Z,17.90
2022-09-13T20:54:06.754Z,18.00
2022-09-13T20:56:34.862Z,18.00
2022-09-13T20:59:02.714Z,17.90
2022-09-13T21:01:31.656Z,18.00
2022-09-13T21:04:00.241Z,18.00
2022-09-13T21:06:30.733Z,18.00
2022-09-13T21:09:00.093Z,18.10
2022-09-13T21:11:35.739Z,18.00
2022-09-13T21:14:06.475Z,18.00
2022-09-13T21:16:39.605Z,17.90
2022-09-13T21:19:08.078Z,17.80
2022-09-13T21:21:38.868Z,17.80
2022-09-13T21:24:09.841Z,17.80
2022-09-13T21:26:42.077Z,17.80
2022-09-13T21:29:11.525Z,17.80
2022-09-13T21:31:39.891Z,17.80
2022-09-13T21:34:18.739Z,17.80
2022-09-13T21:36:46.914Z,17.80
2022-09-13T21:39:15.190Z,17.80
2022-09-13T21:41:43.514Z,17.80
2022-09-13T21:44:10.915Z,17.80
2022-09-13T21:46:40.036Z,17.80
2022-09-13T21:49:11.409Z,17.70
2022-09-13T21:51:46.794Z,17.70
2022-09-13T21:54:17.776Z,17.70
2022-09-13T21:56:51.469Z,17.60
2022-09-13T21:59:21.610Z,17.60
2022-09-13T22:01:51.748Z,17.60
2022-09-13T22:04:25.426Z,17.50
2022-09-13T22:06:53.765Z,17.50
2022-09-13T22:09:27.175Z,17.50
2022-09-13T22:11:55.326Z,17.40
2022-09-13T22:14:22.605Z,17.40
2022-09-13T22:16:52.630Z,17.30
2022-09-13T22:19:26.073Z,17.40
2022-09-13T22:22:00.021Z,17.40
2022-09-13T22:24:32.095Z,17.40
2022-09-13T22:26:59.831Z,17.40
2022-09-13T22:29:27.449Z,17.40
2022-09-13T22:31:55.158Z,17.40
2022-09-13T22:34:24.999Z,17.40
2022-09-13T22:36:55.311Z,17.30
2022-09-13T22:39:22.752Z,17.30
2022-09-13T22:41:49.844Z,17.30
2022-09-13T22:44:16.939Z,17.30
2022-09-13T22:46:46.083Z,17.30
2022-09-13T22:49:17.230Z,17.20
2022-09-13T22:51:45.598Z,17.10
2022-09-13T22:54:14.755Z,17.10
2022-09-13T22:56:42.576Z,17.00
2022-09-13T22:59:19.906Z,17.10
2022-09-13T23:01:48.134Z,17.10
2022-09-13T23:04:15.700Z,17.00
2022-09-13T23:06:46.435Z,17.00
2022-09-13T23:09:18.031Z,17.00
2022-09-13T23:11:46.361Z,17.00
2022-09-13T23:14:16.807Z,17.00
2022-09-13T23:16:47.084Z,17.00
2022-09-13T23:19:15.078Z,17.00
2022-09-13T23:21:43.685Z,17.00
2022-09-13T23:24:15.559Z,16.90
2022-09-13T23:26:44.311Z,16.80
2022-09-13T23:29:15.224Z,16.80
2022-09-13T23:31:43.430Z,16.70
2022-09-13T23:34:12.636Z,16.70
2022-09-13T23:36:42.126Z,16.80
2022-09-13T23:39:16.417Z,16.70
2022-09-13T23:41:45.508Z,16.70
2022-09-13T23:44:13.111Z,16.70
2022-09-13T23:46:40.487Z,16.70
2022-09-13T23:49:07.571Z,16.60
2022-09-13T23:51:34.725Z,16.60
2022-09-13T23:54:02.048Z,16.60
2022-09-13T23:56:31.588Z,16.60
2022-09-13T23:59:01.148Z,16.60
